Time;durP1;ratioP1;P1;durP2;ratioP2;P2;SDS_P1;SDS_P2;PMS_P1;PMS_P2;Temp;Humidity;BMP_temperature;BMP_pressure;BME280_temperature;BME280_humidity;BME280_pressure;Samples;Min_cycle;Max_cycle;Signal;HPM_P1;HPM_P2
2022/09/15 00:01:05;;;;;;;17.00;11.25;;;;;;;17.88;63.15;100620.06;4884565;28;118297;-71
2022/09/15 00:03:33;;;;;;;20.42;11.23;;;;;;;17.85;63.29;100625.66;4866621;28;119071;-71
2022/09/15 00:06:00;;;;;;;18.17;10.38;;;;;;;17.83;63.29;100628.41;4867096;28;124327;-71
2022/09/15 00:08:28;;;;;;;18.92;11.45;;;;;;;17.79;63.24;100623.44;4869521;28;123916;-71
2022/09/15 00:11:07;;;;;;;19.65;10.98;;;;;;;17.77;63.40;100628.91;4868970;28;119204;-71
2022/09/15 00:13:35;;;;;;;19.20;11.45;;;;;;;17.75;63.47;100621.97;4868757;28;118376;-71
2022/09/15 00:16:03;;;;;;;20.02;11.15;;;;;;;17.71;63.39;100619.53;4871276;28;125182;-71
2022/09/15 00:18:30;;;;;;;21.98;11.57;;;;;;;17.69;63.29;100621.47;4869019;28;123713;-71
2022/09/15 00:20:57;;;;;;;15.65;11.15;;;;;;;17.68;63.53;100619.75;4869743;28;119674;-71
2022/09/15 00:23:24;;;;;;;18.25;11.80;;;;;;;17.68;63.45;100625.13;4872983;28;118710;-71
2022/09/15 00:25:52;;;;;;;18.30;11.82;;;;;;;17.68;63.53;100621.59;4868909;28;124429;-71
2022/09/15 00:28:21;;;;;;;17.55;11.07;;;;;;;17.67;63.49;100630.63;4869240;28;123824;-71
2022/09/15 00:30:53;;;;;;;19.25;11.77;;;;;;;17.65;63.47;100630.72;4869193;28;122110;-71
2022/09/15 00:33:21;;;;;;;19.08;11.45;;;;;;;17.63;63.63;100627.31;4879173;28;120047;-71
2022/09/15 00:35:51;;;;;;;19.98;11.77;;;;;;;17.63;63.65;100624.66;4868935;28;123695;-71
2022/09/15 00:38:19;;;;;;;21.63;11.30;;;;;;;17.61;63.76;100621.25;4878962;28;123613;-71
2022/09/15 00:40:51;;;;;;;21.60;12.30;;;;;;;17.62;63.75;100622.94;4852316;28;118481;-71
2022/09/15 00:43:21;;;;;;;23.40;11.70;;;;;;;17.63;63.97;100616.63;4869814;28;119186;-71
2022/09/15 00:45:47;;;;;;;18.73;11.70;;;;;;;17.65;63.84;100620.03;4872123;28;123684;-71
2022/09/15 00:48:20;;;;;;;21.25;11.65;;;;;;;17.65;63.92;100620.03;4872849;28;123856;-71
2022/09/15 00:50:53;;;;;;;19.38;12.25;;;;;;;17.67;63.99;100618.06;4871887;28;119318;-71
2022/09/15 00:53:22;;;;;;;21.73;12.30;;;;;;;17.70;64.02;100623.16;4874083;28;119397;-71
2022/09/15 00:55:50;;;;;;;18.38;12.27;;;;;;;17.74;64.01;100617.59;4881847;28;123067;-71
2022/09/15 00:58:37;;;;;;;22.75;11.82;;;;;;;17.76;64.04;100624.50;4868500;28;122640;-71
2022/09/15 01:01:06;;;;;;;20.17;12.32;;;;;;;17.78;64.09;100619.03;4865631;28;119837;-71
2022/09/15 01:03:35;;;;;;;22.75;11.68;;;;;;;17.78;64.07;100624.41;4869502;28;119562;-71
2022/09/15 01:06:15;;;;;;;20.00;12.32;;;;;;;17.78;64.09;100608.31;4869099;28;124383;-71
2022/09/15 01:09:22;;;;;;;18.85;12.05;;;;;;;17.77;64.00;100606.63;4866648;28;123458;-71
2022/09/15 01:11:49;;;;;;;22.75;12.55;;;;;;;17.79;64.11;100615.41;4868720;28;119446;-71
2022/09/15 01:14:16;;;;;;;27.90;12.48;;;;;;;17.81;64.21;100610.78;4869654;28;119554;-71
2022/09/15 01:17:24;;;;;;;22.27;12.60;;;;;;;17.80;64.08;100617.09;4881006;28;123851;-71
2022/09/15 01:20:29;;;;;;;24.10;12.77;;;;;;;17.80;64.10;100603.69;4880242;28;123459;-71
2022/09/15 01:23:37;;;;;;;20.45;12.45;;;;;;;17.78;64.07;100608.31;4879794;28;119313;-71
2022/09/15 01:26:41;;;;;;;17.08;11.15;;;;;;;17.80;64.08;100617.09;4867773;28;119666;-72
2022/09/15 01:29:30;;;;;;;21.42;12.38;;;;;;;17.79;64.26;100618.06;4868491;28;124772;-71
2022/09/15 01:35:33;;;;;;;20.48;12.40;;;;;;;17.82;64.25;100615.13;4880989;28;118535;-70
2022/09/15 01:38:12;;;;;;;20.27;12.38;;;;;;;17.83;64.37;100611.50;4863910;28;118985;-70
2022/09/15 01:40:47;;;;;;;20.98;12.50;;;;;;;17.86;64.40;100627.38;4861758;28;124593;-70
2022/09/15 01:43:16;;;;;;;26.77;13.70;;;;;;;17.89;64.32;100632.47;4868835;28;124272;-70
2022/09/15 01:45:46;;;;;;;23.17;12.95;;;;;;;17.89;64.39;100628.00;4869428;28;119222;-70
2022/09/15 01:48:17;;;;;;;24.30;13.45;;;;;;;17.89;64.41;100637.81;4868902;28;118977;-70
2022/09/15 01:50:49;;;;;;;25.88;13.15;;;;;;;17.90;64.34;100628.84;4865457;28;124613;-70
2022/09/15 01:53:19;;;;;;;20.48;12.75;;;;;;;17.91;64.51;100635.88;4864335;28;123912;-70
2022/09/15 01:55:51;;;;;;;24.80;12.90;;;;;;;17.92;64.57;100632.25;4868438;28;119481;-70
2022/09/15 01:58:18;;;;;;;22.33;13.18;;;;;;;17.93;64.50;100623.22;4864077;28;119468;-70
2022/09/15 02:00:52;;;;;;;24.83;14.13;;;;;;;17.94;64.81;100619.56;4869113;28;123883;-70
2022/09/15 02:03:43;;;;;;;22.55;13.55;;;;;;;17.96;64.41;100617.63;4867410;28;123571;-70
2022/09/15 02:06:20;;;;;;;21.38;12.60;;;;;;;18.00;64.56;100619.06;4874248;28;119026;-70
2022/09/15 02:08:56;;;;;;;22.48;13.02;;;;;;;18.05;64.45;100616.03;4866509;28;118767;-70
2022/09/15 02:11:26;;;;;;;21.92;13.20;;;;;;;18.08;64.49;100611.28;4882038;28;124042;-70
2022/09/15 02:14:02;;;;;;;24.17;13.60;;;;;;;18.13;64.48;100618.09;4871714;28;123643;-69
2022/09/15 02:16:33;;;;;;;23.33;13.43;;;;;;;18.15;64.45;100621.50;4872503;28;120140;-69
2022/09/15 02:19:08;;;;;;;22.70;13.25;;;;;;;18.15;64.53;100616.16;4873771;28;119638;-70
2022/09/15 02:21:49;;;;;;;21.75;13.60;;;;;;;18.17;64.37;100619.56;4869627;28;124373;-70
2022/09/15 02:24:22;;;;;;;19.70;12.90;;;;;;;18.19;64.40;100617.59;4870273;28;125222;-70
2022/09/15 02:26:51;;;;;;;18.85;12.40;;;;;;;18.21;64.19;100618.31;4870857;28;119400;-70
2022/09/15 02:29:21;;;;;;;19.33;11.82;;;;;;;18.22;64.55;100612.00;4869151;28;119007;-70
2022/09/15 02:31:52;;;;;;;24.15;12.88;;;;;;;18.22;64.15;100610.16;4873972;28;123165;-71
2022/09/15 02:34:30;;;;;;;20.73;12.95;;;;;;;18.23;64.28;100616.38;4883887;28;122940;-70
2022/09/15 02:36:57;;;;;;;22.33;12.65;;;;;;;18.24;64.24;100615.41;4869823;28;119363;-70
2022/09/15 02:39:33;;;;;;;22.55;12.93;;;;;;;18.24;64.18;100607.38;4871339;28;118599;-71
2022/09/15 02:42:01;;;;;;;;;;;;;;;18.23;64.05;100613.69;4869846;28;124154;-70
2022/09/15 02:44:29;;;;;;;19.25;12.27;;;;;;;18.24;64.17;100615.41;4869114;28;124039;-70
2022/09/15 02:46:58;;;;;;;17.33;11.75;;;;;;;18.24;63.96;100615.41;4870746;28;119667;-70
2022/09/15 02:49:25;;;;;;;17.08;12.10;;;;;;;18.23;63.90;100624.41;4872723;28;118850;-70
2022/09/15 02:51:52;;;;;;;19.25;11.98;;;;;;;18.21;63.80;100621.84;4870812;28;124351;-70
2022/09/15 02:54:19;;;;;;;20.77;11.90;;;;;;;18.19;64.09;100623.81;4881949;28;123325;-70
2022/09/15 02:56:46;;;;;;;20.40;12.02;;;;;;;18.17;63.86;100619.56;4870050;28;119259;-70
2022/09/15 02:59:13;;;;;;;18.10;11.77;;;;;;;18.15;63.67;100624.19;4869685;28;119340;-70
2022/09/15 03:01:40;;;;;;;20.38;11.93;;;;;;;18.12;63.67;100622.63;4879801;28;123524;-70
2022/09/15 03:04:07;;;;;;;18.52;11.80;;;;;;;18.08;63.63;100622.00;4871123;28;123828;-71
2022/09/15 03:06:34;;;;;;;19.65;11.38;;;;;;;18.06;63.77;100629.31;4870785;28;121637;-70
2022/09/15 03:09:06;;;;;;;20.63;11.20;;;;;;;18.03;63.57;100624.19;4871879;28;120424;-71
2022/09/15 03:11:34;;;;;;;18.45;11.38;;;;;;;18.00;63.77;100619.06;4868179;28;125467;-70
2022/09/15 03:14:04;;;;;;;18.55;12.00;;;;;;;17.99;63.80;100628.09;4870491;28;124456;-70
2022/09/15 03:16:33;;;;;;;17.05;11.32;;;;;;;17.98;63.78;100626.38;4870422;28;119682;-70
2022/09/15 03:19:01;;;;;;;18.65;11.00;;;;;;;17.96;63.58;100628.34;4872625;28;118959;-70
2022/09/15 03:21:28;;;;;;;18.65;11.45;;;;;;;17.96;63.76;100627.50;4869669;28;124786;-70
2022/09/15 03:23:57;;;;;;;17.92;11.38;;;;;;;17.95;63.78;100625.78;4868209;28;123699;-70
2022/09/15 03:26:25;;;;;;;16.55;10.90;;;;;;;17.95;63.46;100641.84;4871099;28;119421;-70
2022/09/15 03:28:52;;;;;;;16.40;11.00;;;;;;;17.93;63.80;100644.66;4869044;28;117920;-70
2022/09/15 03:31:19;;;;;;;20.88;11.40;;;;;;;17.92;63.81;100653.69;4870195;28;124571;-70
2022/09/15 03:33:47;;;;;;;18.50;11.45;;;;;;;17.92;63.90;100651.00;4877121;28;125035;-70
2022/09/15 03:36:14;;;;;;;17.48;11.02;;;;;;;17.91;63.88;100651.97;4869786;28;119483;-70
2022/09/15 03:38:41;;;;;;;20.48;11.48;;;;;;;17.91;63.81;100660.00;4870493;28;119481;-70
2022/09/15 03:41:10;;;;;;;17.58;11.02;;;;;;;17.91;63.91;100662.66;4871188;28;124499;-70
2022/09/15 03:43:38;;;;;;;20.52;11.75;;;;;;;17.92;63.76;100658.19;4866760;28;124264;-70
2022/09/15 03:46:07;;;;;;;17.45;12.15;;;;;;;17.91;64.02;100668.03;4869804;28;119357;-70
2022/09/15 03:48:35;;;;;;;20.70;11.77;;;;;;;17.91;63.94;100662.66;4867782;28;118701;-70
2022/09/15 03:51:03;;;;;;;20.98;12.48;;;;;;;17.91;64.05;100657.31;4871491;28;123831;-70
2022/09/15 03:53:34;;;;;;;17.70;11.95;;;;;;;17.90;63.91;100666.34;4870192;28;123665;-70
2022/09/15 03:56:20;;;;;;;22.02;11.90;;;;;;;17.91;63.84;100660.00;4877554;28;119016;-71
2022/09/15 03:58:47;;;;;;;19.58;11.25;;;;;;;17.92;63.93;100658.19;4886729;28;119943;-70
2022/09/15 04:01:14;;;;;;;20.80;11.88;;;;;;;17.92;64.06;100653.69;4873429;28;123757;-70
2022/09/15 04:03:42;;;;;;;17.85;11.23;;;;;;;17.92;64.00;100658.19;4870076;28;123575;-71
2022/09/15 04:06:17;;;;;;;24.53;12.17;;;;;;;17.90;63.95;100650.25;4866098;28;118626;-70
2022/09/15 04:08:44;;;;;;;21.25;11.65;;;;;;;17.90;63.95;100651.09;4872878;28;119762;-71
2022/09/15 04:11:12;;;;;;;20.45;11.50;;;;;;;17.89;63.63;100644.06;4877488;28;123772;-71
2022/09/15 04:13:40;;;;;;;19.80;11.65;;;;;;;17.89;63.91;100648.53;4870875;28;124272;-70
2022/09/15 04:16:12;;;;;;;17.48;10.63;;;;;;;17.87;63.99;100645.13;4867886;28;118343;-70
2022/09/15 04:18:40;;;;;;;17.98;10.75;;;;;;;17.87;63.95;100639.78;4868897;28;118903;-72
2022/09/15 04:21:10;;;;;;;19.85;11.05;;;;;;;17.86;63.89;100649.66;4869236;28;124080;-71
2022/09/15 04:23:38;;;;;;;15.15;10.88;;;;;;;17.85;63.91;100641.72;4867822;28;123444;-70
2022/09/15 04:26:16;;;;;;;13.90;10.32;;;;;;;17.86;63.85;100648.81;4868677;28;119073;-70
2022/09/15 04:28:43;;;;;;;15.95;10.07;;;;;;;17.86;64.00;100643.44;4866222;28;118981;-70
2022/09/15 04:31:15;;;;;;;14.63;10.68;;;;;;;17.88;63.92;100652.22;4869699;28;123777;-71
2022/09/15 04:33:43;;;;;;;14.75;9.77;;;;;;;17.87;63.92;100645.97;4867337;28;124842;-70
2022/09/15 04:36:17;;;;;;;17.30;10.48;;;;;;;17.87;63.99;100639.78;4878780;28;119455;-70
2022/09/15 04:38:44;;;;;;;17.67;10.15;;;;;;;17.89;63.99;100648.53;4868917;28;118794;-70
2022/09/15 04:41:13;;;;;;;20.23;11.13;;;;;;;17.90;63.93;100644.91;4872186;28;124040;-70
2022/09/15 04:43:42;;;;;;;19.50;10.73;;;;;;;17.91;64.19;100649.28;4869369;28;123798;-70
2022/09/15 04:46:09;;;;;;;13.63;9.98;;;;;;;17.92;63.82;100648.31;4868418;28;120360;-71
2022/09/15 04:48:37;;;;;;;15.02;10.73;;;;;;;17.93;64.04;100652.69;4881462;28;117555;-70
2022/09/15 04:51:07;;;;;;;16.17;11.27;;;;;;;17.94;64.04;100651.72;4867993;28;125873;-70
2022/09/15 04:53:34;;;;;;;16.60;10.65;;;;;;;17.96;64.10;100655.13;4870084;28;123860;-70
2022/09/15 04:56:10;;;;;;;16.35;10.23;;;;;;;17.96;63.97;100652.44;4868277;28;119466;-71
2022/09/15 04:58:57;;;;;;;15.07;10.05;;;;;;;17.95;63.95;100645.41;4870338;28;118363;-70
2022/09/15 05:01:32;;;;;;;13.90;9.85;;;;;;;17.96;64.06;100649.78;4866414;28;124620;-70
2022/09/15 05:04:02;;;;;;;18.73;10.90;;;;;;;17.96;64.07;100649.78;4870033;28;123959;-71
2022/09/15 05:06:29;;;;;;;15.43;10.25;;;;;;;17.98;63.91;100653.19;4867173;28;119709;-70
2022/09/15 05:08:57;;;;;;;15.25;10.05;;;;;;;17.99;64.25;100654.91;4868607;28;118757;-71
2022/09/15 05:11:25;;;;;;;18.08;10.68;;;;;;;18.00;64.07;100656.59;4871624;28;123942;-70
2022/09/15 05:13:53;;;;;;;16.98;10.20;;;;;;;18.00;64.12;100642.34;4867094;28;124561;-70
2022/09/15 05:16:22;;;;;;;18.55;10.18;;;;;;;18.01;64.13;100647.59;4868662;28;119021;-70
2022/09/15 05:18:51;;;;;;;23.33;11.00;;;;;;;18.02;64.16;100637.72;4868304;28;119598;-72
2022/09/15 05:21:20;;;;;;;17.08;10.75;;;;;;;18.04;64.12;100639.28;4868819;28;123965;-70
2022/09/15 05:23:50;;;;;;;17.08;11.23;;;;;;;18.04;64.16;100641.97;4867624;28;123051;-70
2022/09/15 05:26:20;;;;;;;15.25;10.23;;;;;;;18.05;63.96;100638.31;4868558;28;120354;-70
2022/09/15 05:28:48;;;;;;;18.20;10.15;;;;;;;18.05;63.84;100649.03;4868384;28;119133;-70
2022/09/15 05:31:24;;;;;;;17.10;10.90;;;;;;;18.03;63.84;100656.34;4865028;28;124376;-71
2022/09/15 05:33:51;;;;;;;17.88;10.40;;;;;;;18.01;63.88;100661.00;4866360;28;122811;-71
2022/09/15 05:36:22;;;;;;;16.05;10.20;;;;;;;17.99;63.95;100660.25;4868318;28;119908;-71
2022/09/15 05:38:50;;;;;;;20.33;10.95;;;;;;;17.98;64.02;100669.25;4879953;28;119747;-71
2022/09/15 05:41:18;;;;;;;17.88;10.85;;;;;;;17.98;64.09;100669.25;4867030;28;122882;-71
2022/09/15 05:43:46;;;;;;;24.67;10.32;;;;;;;17.97;64.12;100675.59;4870954;28;124026;-71
2022/09/15 05:46:15;;;;;;;15.77;9.98;;;;;;;17.96;64.26;100671.22;4872021;28;119991;-71
2022/09/15 05:48:42;;;;;;;19.42;10.50;;;;;;;17.96;64.31;100676.56;4872091;28;119743;-71
2022/09/15 05:51:09;;;;;;;16.60;10.50;;;;;;;17.98;64.29;100679.97;4871353;28;123561;-71
2022/09/15 05:53:37;;;;;;;18.10;10.32;;;;;;;17.99;64.26;100676.34;4870515;28;124922;-71
2022/09/15 05:56:12;;;;;;;13.68;9.88;;;;;;;18.00;64.25;100683.38;4872166;28;119224;-71
2022/09/15 05:58:40;;;;;;;23.55;10.07;;;;;;;18.02;63.80;100686.78;4867471;28;119407;-71
2022/09/15 06:01:12;;;;;;;18.10;9.68;;;;;;;18.03;64.12;100682.31;4871469;28;123616;-71
2022/09/15 06:03:39;;;;;;;16.60;9.65;;;;;;;18.04;64.29;100686.69;4871512;28;123622;-71
2022/09/15 06:06:06;;;;;;;14.77;10.10;;;;;;;18.05;64.31;100685.72;4883417;28;119295;-74
2022/09/15 06:08:43;;;;;;;14.70;9.88;;;;;;;18.07;64.43;100683.78;4880537;28;118067;-72
2022/09/15 06:11:20;;;;;;;16.75;9.65;;;;;;;18.08;64.42;100691.69;4871073;28;124279;-72
2022/09/15 06:13:47;;;;;;;15.68;9.68;;;;;;;18.14;64.18;100694.84;4871445;28;125330;-72
2022/09/15 06:16:18;;;;;;;15.65;10.15;;;;;;;18.15;64.53;100697.41;4870270;28;120408;-70
2022/09/15 06:18:47;;;;;;;18.40;10.10;;;;;;;18.19;64.40;100692.66;4883125;28;117971;-72
2022/09/15 06:21:19;;;;;;;15.38;10.35;;;;;;;18.21;64.37;100691.53;4872464;28;124813;-72
2022/09/15 06:23:52;;;;;;;15.75;9.93;;;;;;;18.24;64.43;100695.84;4867879;28;123893;-72
2022/09/15 06:26:20;;;;;;;15.38;10.23;;;;;;;18.27;64.30;100690.19;4868856;28;120364;-72
2022/09/15 06:28:49;;;;;;;16.17;10.18;;;;;;;18.32;64.23;100692.53;4870483;28;119636;-72
2022/09/15 06:31:17;;;;;;;17.33;9.23;;;;;;;18.34;64.17;100691.44;4870358;28;124047;-72
2022/09/15 06:33:50;;;;;;;15.73;9.20;;;;;;;18.38;64.24;100703.59;4870521;28;123853;-72
2022/09/15 06:36:19;;;;;;;15.40;10.07;;;;;;;18.42;64.13;100699.72;4868574;28;119445;-73
2022/09/15 06:38:48;;;;;;;17.25;9.68;;;;;;;18.44;63.91;100697.78;4870495;28;119762;-72
2022/09/15 06:41:15;;;;;;;15.60;9.27;;;;;;;18.48;64.13;100709.94;4867766;28;123527;-73
2022/09/15 06:43:43;;;;;;;16.67;9.75;;;;;;;18.53;64.25;100711.41;4873258;28;124305;-72
2022/09/15 06:46:13;;;;;;;12.43;9.23;;;;;;;18.56;64.32;100711.16;4870380;28;119255;-72
2022/09/15 06:48:41;;;;;;;16.95;9.52;;;;;;;18.61;64.19;100708.94;4868855;28;118064;-72
2022/09/15 06:51:15;;;;;;;16.95;9.98;;;;;;;18.66;64.29;100718.31;4867171;28;124697;-72
2022/09/15 06:53:43;;;;;;;13.63;9.93;;;;;;;18.70;64.19;100724.28;4870238;28;124237;-72
2022/09/15 06:56:13;;;;;;;17.35;10.20;;;;;;;18.73;64.20;100729.41;4870308;28;119495;-72
2022/09/15 06:58:41;;;;;;;18.00;9.93;;;;;;;18.75;64.30;100727.47;4869834;28;119141;-72
2022/09/15 07:01:11;;;;;;;14.75;9.38;;;;;;;18.80;64.32;100733.34;4870357;28;124246;-72
2022/09/15 07:03:41;;;;;;;15.68;8.93;;;;;;;18.85;64.24;100733.84;4870290;28;123743;-72
2022/09/15 07:06:10;;;;;;;14.30;8.55;;;;;;;18.88;64.03;100742.59;4871649;28;119849;-72
2022/09/15 07:08:39;;;;;;;16.92;8.93;;;;;;;18.92;64.05;100739.53;4872015;28;118908;-72
2022/09/15 07:11:07;;;;;;;13.45;8.50;;;;;;;18.95;63.91;100738.41;4875394;28;123893;-72
2022/09/15 07:13:34;;;;;;;16.70;7.95;;;;;;;19.00;63.74;100741.59;4880724;28;123613;-72
2022/09/15 07:16:03;;;;;;;11.82;7.70;;;;;;;19.03;63.58;100746.72;4887678;28;120871;-72
2022/09/15 07:18:31;;;;;;;10.70;7.65;;;;;;;19.07;63.58;100740.09;4901160;28;119963;-71
2022/09/15 07:21:04;;;;;;;15.52;8.25;;;;;;;19.09;63.37;100746.19;4902121;28;123365;-73
2022/09/15 07:23:33;;;;;;;10.00;7.13;;;;;;;19.12;63.49;100745.97;4868444;28;124224;-72
2022/09/15 07:26:15;;;;;;;9.60;6.45;;;;;;;19.15;63.21;100758.25;4875999;28;119102;-73
2022/09/15 07:28:45;;;;;;;10.30;6.38;;;;;;;19.18;63.16;100750.81;4890522;28;118885;-72
2022/09/15 07:31:14;;;;;;;9.32;6.05;;;;;;;19.21;63.06;100750.56;4862999;28;124580;-73
2022/09/15 07:33:41;;;;;;;9.70;5.80;;;;;;;19.24;63.26;100750.28;4860301;28;123908;-73
2022/09/15 07:36:09;;;;;;;10.57;5.50;;;;;;;19.28;62.98;100755.41;4874624;28;120927;-72
2022/09/15 07:38:42;;;;;;;11.63;6.00;;;;;;;19.35;62.93;100753.94;4869295;28;117398;-73
2022/09/15 07:41:34;;;;;;;7.15;4.88;;;;;;;19.40;62.80;100749.00;4865556;28;124440;-73
2022/09/15 07:44:01;;;;;;;11.43;4.97;;;;;;;19.47;62.82;100750.19;4869944;28;123655;-72
2022/09/15 07:46:31;;;;;;;9.45;4.70;;;;;;;19.50;62.42;100749.97;4871144;28;120840;-72
2022/09/15 07:48:59;;;;;;;9.38;4.38;;;;;;;19.54;62.41;100762.13;4870783;28;119048;-72
2022/09/15 07:51:26;;;;;;;11.15;4.35;;;;;;;19.59;62.18;100759.94;4862523;28;124217;-73
2022/09/15 07:53:53;;;;;;;7.80;4.25;;;;;;;19.63;61.87;100766.75;4875738;28;124589;-73
2022/09/15 07:56:23;;;;;;;7.22;3.92;;;;;;;19.68;61.86;100768.19;4877595;28;119337;-73
2022/09/15 07:58:50;;;;;;;6.97;3.50;;;;;;;19.72;61.62;100764.25;4846568;28;118009;-72
2022/09/15 08:01:18;;;;;;;5.40;3.25;;;;;;;19.75;61.57;100764.03;4871451;28;123075;-71
2022/09/15 08:03:48;;;;;;;8.48;3.67;;;;;;;19.79;61.33;100765.47;4871499;28;124098;-72
2022/09/15 08:06:17;;;;;;;10.63;3.72;;;;;;;19.82;61.19;100775.97;4870730;28;120366;-72
2022/09/15 08:08:44;;;;;;;10.90;3.85;;;;;;;19.85;61.11;100781.06;4871062;28;119606;-72
2022/09/15 08:11:16;;;;;;;7.95;3.42;;;;;;;19.87;60.86;100779.09;4867532;28;123444;-71
2022/09/15 08:13:47;;;;;;;7.20;3.33;;;;;;;19.88;60.65;100779.97;4869256;28;122955;-72
2022/09/15 08:16:16;;;;;;;8.02;3.63;;;;;;;19.89;60.41;100787.91;4869415;28;120019;-72
2022/09/15 08:18:44;;;;;;;9.68;3.42;;;;;;;19.89;60.61;100787.91;4870328;28;119301;-71
2022/09/15 08:21:14;;;;;;;6.32;3.63;;;;;;;19.93;60.67;100783.97;4870074;28;124546;-72
2022/09/15 08:23:42;;;;;;;5.65;3.70;;;;;;;19.97;60.26;100785.41;4869096;28;124090;-71
2022/09/15 08:26:10;;;;;;;10.75;3.40;;;;;;;19.98;60.11;100787.09;4870757;28;119593;-72
2022/09/15 08:28:41;;;;;;;9.80;3.53;;;;;;;20.00;60.21;100790.53;4856903;28;118655;-72
2022/09/15 08:31:10;;;;;;;7.22;3.53;;;;;;;20.05;59.95;100797.34;4854779;28;123548;-71
2022/09/15 08:33:38;;;;;;;8.63;3.70;;;;;;;20.09;59.74;100798.78;4871421;28;123834;-72
2022/09/15 08:36:12;;;;;;;7.05;3.50;;;;;;;20.12;59.92;100793.16;4870008;28;119299;-72
2022/09/15 08:38:41;;;;;;;7.18;3.25;;;;;;;20.17;59.32;100796.28;4869639;28;118936;-72
2022/09/15 08:41:25;;;;;;;7.63;3.30;;;;;;;20.21;59.16;100795.00;4870608;28;124539;-72
2022/09/15 08:44:19;;;;;;;7.87;3.93;;;;;;;20.26;59.19;100806.22;4869734;28;123871;-72
2022/09/15 08:47:21;;;;;;;12.05;4.07;;;;;;;20.34;59.48;100809.13;4868571;28;119281;-72
2022/09/15 08:49:58;;;;;;;9.93;4.00;;;;;;;20.40;59.15;100813.13;4848165;28;118766;-72
2022/09/15 08:52:37;;;;;;;7.47;3.35;;;;;;;20.46;58.89;100811.72;4880402;28;124335;-72
2022/09/15 08:55:30;;;;;;;10.27;3.65;;;;;;;20.49;58.93;100820.38;4869348;28;123929;-72
2022/09/15 08:57:57;;;;;;;6.32;3.85;;;;;;;20.56;58.64;100828.75;4836591;28;120323;-72
2022/09/15 09:00:25;;;;;;;7.05;3.10;;;;;;;20.62;58.66;100822.88;4863342;28;119692;-72
2022/09/15 09:03:02;;;;;;;7.90;3.20;;;;;;;20.68;58.42;100827.72;4869724;28;124351;-72
2022/09/15 09:05:55;;;;;;;8.15;3.13;;;;;;;20.73;58.11;100835.38;4882450;28;123775;-72
2022/09/15 09:08:44;;;;;;;5.20;3.13;;;;;;;20.77;58.14;100837.66;4856345;28;119325;-72
2022/09/15 09:11:30;;;;;;;8.30;3.67;;;;;;;20.83;58.18;100830.03;4870168;28;118877;-73
2022/09/15 09:14:08;;;;;;;5.97;2.72;;;;;;;20.89;57.85;100829.47;4864509;28;124017;-72
2022/09/15 09:16:44;;;;;;;6.85;2.70;;;;;;;20.93;57.49;100839.03;4867708;28;124415;-72
2022/09/15 09:19:18;;;;;;;5.60;2.50;;;;;;;20.95;57.04;100845.13;4869744;28;119546;-72
2022/09/15 09:21:57;;;;;;;6.32;2.63;;;;;;;20.96;56.80;100838.72;4869209;28;118802;-72
2022/09/15 09:24:37;;;;;;;5.93;2.20;;;;;;;20.97;56.41;100838.59;4854921;28;123336;-72
2022/09/15 09:27:13;;;;;;;10.30;2.40;;;;;;;20.98;56.02;100839.44;4870792;28;123599;-72
2022/09/15 09:29:48;;;;;;;8.25;2.45;;;;;;;20.97;55.92;100838.59;4870386;28;119664;-72
2022/09/15 09:32:33;;;;;;;7.10;2.70;;;;;;;20.99;56.22;100841.16;4871125;28;118244;-72
2022/09/15 09:35:03;;;;;;;7.15;2.65;;;;;;;20.99;56.04;100841.16;4867673;28;124027;-73
2022/09/15 09:37:32;;;;;;;6.47;2.97;;;;;;;20.97;55.80;100843.13;4878431;28;124027;-72
2022/09/15 09:39:59;;;;;;;6.32;2.92;;;;;;;20.92;55.67;100840.00;4873325;28;118256;-73
2022/09/15 09:42:32;;;;;;;7.53;2.92;;;;;;;20.91;55.94;100843.69;4872858;28;120001;-72
2022/09/15 09:44:59;;;;;;;10.65;3.00;;;;;;;20.90;55.88;100844.66;4870246;28;123196;-71
2022/09/15 09:47:31;;;;;;;6.80;2.83;;;;;;;20.87;55.88;100842.22;4887430;28;123494;-71
2022/09/15 09:49:58;;;;;;;7.75;2.83;;;;;;;20.83;55.57;100841.66;4889667;28;119626;-71
2022/09/15 09:52:34;;;;;;;10.27;2.50;;;;;;;20.77;55.73;100842.19;4864827;28;119908;-71
2022/09/15 09:55:18;;;;;;;8.93;2.88;;;;;;;20.75;55.89;100845.03;4881302;28;125354;-71
2022/09/15 09:57:46;;;;;;;9.13;2.42;;;;;;;20.76;55.90;100841.34;4871567;28;123064;-72
2022/09/15 10:00:34;;;;;;;7.72;2.20;;;;;;;20.74;55.76;100839.78;4875854;28;119567;-71
2022/09/15 10:03:21;;;;;;;10.88;2.22;;;;;;;20.69;55.80;100845.56;4872787;28;120144;-71
2022/09/15 10:06:11;;;;;;;9.63;2.15;;;;;;;20.71;56.14;100838.22;4875600;28;124631;-71
2022/09/15 10:08:54;;;;;;;6.15;2.17;;;;;;;20.74;56.17;100848.72;4862200;28;123742;-71
2022/09/15 10:11:38;;;;;;;7.30;2.00;;;;;;;20.78;56.22;100850.16;4873854;28;119693;-71
2022/09/15 10:14:05;;;;;;;5.10;1.70;;;;;;;20.83;55.77;100840.81;4869159;28;120046;-71
2022/09/15 10:16:32;;;;;;;5.90;2.03;;;;;;;20.84;55.85;100843.38;4874215;28;124565;-71
2022/09/15 10:18:59;;;;;;;6.97;1.90;;;;;;;20.88;55.70;100843.94;4885563;28;123852;-72
2022/09/15 10:21:26;;;;;;;7.00;1.75;;;;;;;20.94;55.85;100854.16;4868070;28;119414;-72
2022/09/15 10:23:53;;;;;;;6.10;2.00;;;;;;;20.99;55.23;100842.00;4880156;28;118623;-72
2022/09/15 10:26:32;;;;;;;9.25;2.28;;;;;;;21.03;55.20;100847.97;4872299;28;124071;-72
2022/09/15 10:29:11;;;;;;;7.88;2.30;;;;;;;21.08;55.05;100839.47;4862683;28;123859;-72
2022/09/15 10:31:39;;;;;;;6.65;1.95;;;;;;;21.11;55.16;100829.25;4865250;28;119244;-72
2022/09/15 10:34:25;;;;;;;4.35;1.70;;;;;;;21.20;55.00;100828.44;4871921;28;118707;-71
2022/09/15 10:37:09;;;;;;;6.97;1.83;;;;;;;21.32;54.81;100822.94;4869359;28;124185;-71
2022/09/15 10:39:50;;;;;;;7.43;1.45;;;;;;;21.37;54.40;100824.22;4882650;28;123007;-72
2022/09/15 10:42:46;;;;;;;4.75;1.42;;;;;;;21.40;54.21;100833.88;4874834;28;120103;-72
2022/09/15 10:45:23;;;;;;;8.23;1.73;;;;;;;21.40;53.72;100844.66;4879125;28;119942;-71
2022/09/15 10:48:18;;;;;;;8.90;1.35;;;;;;;21.27;53.75;100850.31;4869733;28;124047;-71
2022/09/15 10:50:53;;;;;;;6.25;1.20;;;;;;;21.14;53.73;100855.09;4883723;28;124552;-72
2022/09/15 10:53:38;;;;;;;6.60;1.17;;;;;;;20.99;53.46;100851.94;4873411;28;119962;-72
2022/09/15 10:56:22;;;;;;;3.97;0.93;;;;;;;20.85;53.54;100850.47;4882327;28;120147;-72
2022/09/15 10:59:02;;;;;;;3.83;1.17;;;;;;;20.73;53.51;100852.38;4883828;28;124320;-72
2022/09/15 11:01:29;;;;;;;6.43;1.17;;;;;;;20.65;53.68;100854.06;4857174;28;124145;-71
2022/09/15 11:04:20;;;;;;;4.47;0.90;;;;;;;20.55;54.06;100859.34;4868637;28;119084;-72
2022/09/15 11:07:11;;;;;;;5.43;1.10;;;;;;;20.49;54.15;100855.34;4870132;28;118927;-72
2022/09/15 11:09:48;;;;;;;4.78;1.15;;;;;;;20.43;54.59;100856.72;4865586;28;124463;-72
2022/09/15 11:12:44;;;;;;;2.97;1.00;;;;;;;20.40;54.71;100851.63;4866628;28;124082;-72
2022/09/15 11:15:32;;;;;;;4.82;1.25;;;;;;;20.39;54.67;100854.44;4882261;28;118544;-72
2022/09/15 11:18:11;;;;;;;3.22;1.08;;;;;;;20.37;54.74;100851.03;4868508;28;119276;-71
2022/09/15 11:21:14;;;;;;;2.97;1.02;;;;;;;20.37;54.95;100857.25;4870650;28;124073;-72
2022/09/15 11:23:46;;;;;;;3.53;1.17;;;;;;;20.39;55.11;100860.66;4868961;28;122868;-71
2022/09/15 11:26:22;;;;;;;3.08;1.00;;;;;;;20.41;54.83;100850.63;4869087;28;119515;-72
2022/09/15 11:28:58;;;;;;;3.85;1.23;;;;;;;20.42;54.65;100854.19;4868406;28;118450;-71
2022/09/15 11:31:38;;;;;;;5.70;1.20;;;;;;;20.41;54.68;100847.94;4867810;28;123294;-71
2022/09/15 11:34:27;;;;;;;3.85;1.30;;;;;;;20.43;54.73;100862.09;4867829;28;123539;-71
2022/09/15 11:37:16;;;;;;;3.55;0.90;;;;;;;20.43;54.60;100864.78;4884267;28;119397;-71